sensor_id;sensor_type;location;lat;lon;timestamp;temperature;humidity
29663;DHT22;16578;53.266;7.920;2022-12-07T00:01:34;7.90;80.80
29663;DHT22;16578;53.266;7.920;2022-12-07T00:04:02;7.90;80.70
29663;DHT22;16578;53.266;7.920;2022-12-07T00:06:36;7.80;80.70
29663;DHT22;16578;53.266;7.920;2022-12-07T00:09:04;7.80;80.60
29663;DHT22;16578;53.266;7.920;2022-12-07T00:11:30;7.80;80.30
29663;DHT22;16578;53.266;7.920;2022-12-07T00:13:59;7.70;80.20
29663;DHT22;16578;53.266;7.920;2022-12-07T00:16:27;7.70;81.10
29663;DHT22;16578;53.266;7.920;2022-12-07T00:18:53;7.70;80.10
29663;DHT22;16578;53.266;7.920;2022-12-07T00:21:24;7.60;80.00
29663;DHT22;16578;53.266;7.920;2022-12-07T00:23:51;7.60;80.00
29663;DHT22;16578;53.266;7.920;2022-12-07T00:26:21;7.60;80.10
29663;DHT22;16578;53.266;7.920;2022-12-07T00:28:52;7.50;80.10
29663;DHT22;16578;53.266;7.920;2022-12-07T00:31:20;7.50;80.10
29663;DHT22;16578;53.266;7.920;2022-12-07T00:33:46;7.40;80.00
29663;DHT22;16578;53.266;7.920;2022-12-07T00:36:15;7.40;80.10
29663;DHT22;16578;53.266;7.920;2022-12-07T00:38:41;7.40;80.10
29663;DHT22;16578;53.266;7.920;2022-12-07T00:41:11;7.30;80.10
29663;DHT22;16578;53.266;7.920;2022-12-07T00:43:38;7.30;80.10
29663;DHT22;16578;53.266;7.920;2022-12-07T00:46:04;7.30;80.20
29663;DHT22;16578;53.266;7.920;2022-12-07T00:48:30;7.30;80.10
29663;DHT22;16578;53.266;7.920;2022-12-07T00:50:56;7.20;80.10
29663;DHT22;16578;53.266;7.920;2022-12-07T00:53:21;7.20;80.10
29663;DHT22;16578;53.266;7.920;2022-12-07T00:55:47;7.20;80.20
29663;DHT22;16578;53.266;7.920;2022-12-07T00:58:12;7.20;80.40
29663;DHT22;16578;53.266;7.920;2022-12-07T01:00:40;7.20;80.60
29663;DHT22;16578;53.266;7.920;2022-12-07T01:03:07;7.20;80.80
29663;DHT22;16578;53.266;7.920;2022-12-07T01:05:33;7.20;80.90
29663;DHT22;16578;53.266;7.920;2022-12-07T01:07:59;7.20;81.00
29663;DHT22;16578;53.266;7.920;2022-12-07T01:10:25;7.20;81.10
29663;DHT22;16578;53.266;7.920;2022-12-07T01:12:50;7.20;81.20
29663;DHT22;16578;53.266;7.920;2022-12-07T01:15:16;7.20;81.20
29663;DHT22;16578;53.266;7.920;2022-12-07T01:17:42;7.20;81.20
29663;DHT22;16578;53.266;7.920;2022-12-07T01:20:07;7.30;81.30
29663;DHT22;16578;53.266;7.920;2022-12-07T01:22:43;7.30;81.30
29663;DHT22;16578;53.266;7.920;2022-12-07T01:25:10;7.30;81.20
29663;DHT22;16578;53.266;7.920;2022-12-07T01:27:37;7.30;81.20
29663;DHT22;16578;53.266;7.920;2022-12-07T01:30:05;7.30;81.10
29663;DHT22;16578;53.266;7.920;2022-12-07T01:32:31;7.30;80.90
29663;DHT22;16578;53.266;7.920;2022-12-07T01:34:57;7.30;80.90
29663;DHT22;16578;53.266;7.920;2022-12-07T01:37:23;7.30;80.80
29663;DHT22;16578;53.266;7.920;2022-12-07T01:39:50;7.30;80.70
29663;DHT22;16578;53.266;7.920;2022-12-07T01:42:16;7.30;80.70
29663;DHT22;16578;53.266;7.920;2022-12-07T01:47:54;7.30;80.60
29663;DHT22;16578;53.266;7.920;2022-12-07T01:50:22;7.30;80.70
29663;DHT22;16578;53.266;7.920;2022-12-07T01:52:49;7.30;80.70
29663;DHT22;16578;53.266;7.920;2022-12-07T01:55:16;7.20;80.90
29663;DHT22;16578;53.266;7.920;2022-12-07T01:57:46;7.30;80.90
29663;DHT22;16578;53.266;7.920;2022-12-07T02:00:13;7.30;81.70
29663;DHT22;16578;53.266;7.920;2022-12-07T02:05:28;7.30;80.90
29663;DHT22;16578;53.266;7.920;2022-12-07T02:07:55;7.30;80.90
29663;DHT22;16578;53.266;7.920;2022-12-07T02:10:27;7.30;80.80
29663;DHT22;16578;53.266;7.920;2022-12-07T02:13:06;7.30;80.70
29663;DHT22;16578;53.266;7.920;2022-12-07T02:16:08;7.30;80.70
29663;DHT22;16578;53.266;7.920;2022-12-07T02:19:08;7.30;80.70
29663;DHT22;16578;53.266;7.920;2022-12-07T02:24:52;7.20;80.50
29663;DHT22;16578;53.266;7.920;2022-12-07T02:30:29;7.20;80.30
29663;DHT22;16578;53.266;7.920;2022-12-07T02:33:04;7.20;80.40
29663;DHT22;16578;53.266;7.920;2022-12-07T02:38:35;7.20;80.50
29663;DHT22;16578;53.266;7.920;2022-12-07T02:41:11;7.20;80.50
29663;DHT22;16578;53.266;7.920;2022-12-07T02:43:52;7.20;80.60
29663;DHT22;16578;53.266;7.920;2022-12-07T02:46:22;7.20;80.70
29663;DHT22;16578;53.266;7.920;2022-12-07T02:48:49;7.20;81.00
29663;DHT22;16578;53.266;7.920;2022-12-07T02:51:18;7.20;81.10
29663;DHT22;16578;53.266;7.920;2022-12-07T02:53:44;7.30;81.20
29663;DHT22;16578;53.266;7.920;2022-12-07T02:56:42;7.30;81.20
29663;DHT22;16578;53.266;7.920;2022-12-07T02:59:40;7.30;81.10
29663;DHT22;16578;53.266;7.920;2022-12-07T03:07:33;7.40;80.90
29663;DHT22;16578;53.266;7.920;2022-12-07T03:10:07;7.40;81.00
29663;DHT22;16578;53.266;7.920;2022-12-07T03:13:15;7.40;80.90
29663;DHT22;16578;53.266;7.920;2022-12-07T03:15:55;7.40;80.80
29663;DHT22;16578;53.266;7.920;2022-12-07T03:18:25;7.40;80.90
29663;DHT22;16578;53.266;7.920;2022-12-07T03:20:56;7.40;80.90
29663;DHT22;16578;53.266;7.920;2022-12-07T03:23:23;7.40;80.80
29663;DHT22;16578;53.266;7.920;2022-12-07T03:25:53;7.40;80.80
29663;DHT22;16578;53.266;7.920;2022-12-07T03:28:23;7.40;80.80
29663;DHT22;16578;53.266;7.920;2022-12-07T03:33:36;7.40;80.60
29663;DHT22;16578;53.266;7.920;2022-12-07T03:36:11;7.40;80.60
29663;DHT22;16578;53.266;7.920;2022-12-07T03:39:22;7.40;80.50
29663;DHT22;16578;53.266;7.920;2022-12-07T03:41:50;7.40;80.40
29663;DHT22;16578;53.266;7.920;2022-12-07T03:44:16;7.40;80.50
29663;DHT22;16578;53.266;7.920;2022-12-07T03:46:50;7.40;80.50
29663;DHT22;16578;53.266;7.920;2022-12-07T03:49:41;7.30;80.40
29663;DHT22;16578;53.266;7.920;2022-12-07T03:54:39;7.30;80.70
29663;DHT22;16578;53.266;7.920;2022-12-07T03:57:05;7.20;80.90
29663;DHT22;16578;53.266;7.920;2022-12-07T03:59:32;7.20;81.10
29663;DHT22;16578;53.266;7.920;2022-12-07T04:02:03;7.30;80.70
29663;DHT22;16578;53.266;7.920;2022-12-07T04:04:29;7.30;80.50
29663;DHT22;16578;53.266;7.920;2022-12-07T04:06:55;7.20;80.60
29663;DHT22;16578;53.266;7.920;2022-12-07T04:09:22;7.20;80.70
29663;DHT22;16578;53.266;7.920;2022-12-07T04:11:47;7.30;80.80
29663;DHT22;16578;53.266;7.920;2022-12-07T04:14:13;7.20;80.80
29663;DHT22;16578;53.266;7.920;2022-12-07T04:16:49;7.20;80.80
29663;DHT22;16578;53.266;7.920;2022-12-07T04:19:16;7.30;80.80
29663;DHT22;16578;53.266;7.920;2022-12-07T04:21:42;7.30;80.70
29663;DHT22;16578;53.266;7.920;2022-12-07T04:24:08;7.20;80.60
29663;DHT22;16578;53.266;7.920;2022-12-07T04:26:33;7.20;80.70
29663;DHT22;16578;53.266;7.920;2022-12-07T04:28:59;7.20;80.80
29663;DHT22;16578;53.266;7.920;2022-12-07T04:31:24;7.20;80.80
29663;DHT22;16578;53.266;7.920;2022-12-07T04:33:50;7.20;80.90
29663;DHT22;16578;53.266;7.920;2022-12-07T04:36:15;7.30;81.10
29663;DHT22;16578;53.266;7.920;2022-12-07T04:38:41;7.30;81.10
29663;DHT22;16578;53.266;7.920;2022-12-07T04:41:07;7.30;81.10
29663;DHT22;16578;53.266;7.920;2022-12-07T04:43:34;7.30;81.00
29663;DHT22;16578;53.266;7.920;2022-12-07T04:46:00;7.30;81.00
29663;DHT22;16578;53.266;7.920;2022-12-07T04:48:25;7.30;81.10
29663;DHT22;16578;53.266;7.920;2022-12-07T04:50:51;7.30;81.10
29663;DHT22;16578;53.266;7.920;2022-12-07T04:53:16;7.40;81.20
29663;DHT22;16578;53.266;7.920;2022-12-07T04:55:42;7.40;81.10
29663;DHT22;16578;53.266;7.920;2022-12-07T04:58:08;7.40;81.10
29663;DHT22;16578;53.266;7.920;2022-12-07T05:00:34;7.40;81.00
29663;DHT22;16578;53.266;7.920;2022-12-07T05:02:59;7.40;80.90
29663;DHT22;16578;53.266;7.920;2022-12-07T05:05:25;7.40;80.80
29663;DHT22;16578;53.266;7.920;2022-12-07T05:07:51;7.40;80.70
29663;DHT22;16578;53.266;7.920;2022-12-07T05:10:16;7.40;80.60
29663;DHT22;16578;53.266;7.920;2022-12-07T05:12:42;7.40;80.50
29663;DHT22;16578;53.266;7.920;2022-12-07T05:15:08;7.40;80.50
29663;DHT22;16578;53.266;7.920;2022-12-07T05:17:33;7.40;80.50
29663;DHT22;16578;53.266;7.920;2022-12-07T05:19:59;7.30;80.50
29663;DHT22;16578;53.266;7.920;2022-12-07T05:22:24;7.30;80.50
29663;DHT22;16578;53.266;7.920;2022-12-07T05:24:54;7.30;80.50
29663;DHT22;16578;53.266;7.920;2022-12-07T05:27:19;7.30;80.60
29663;DHT22;16578;53.266;7.920;2022-12-07T05:29:45;7.30;80.60
29663;DHT22;16578;53.266;7.920;2022-12-07T05:32:11;7.30;80.70
29663;DHT22;16578;53.266;7.920;2022-12-07T05:34:36;7.30;80.80
29663;DHT22;16578;53.266;7.920;2022-12-07T05:37:02;7.30;80.80
29663;DHT22;16578;53.266;7.920;2022-12-07T05:39:27;7.30;80.80
29663;DHT22;16578;53.266;7.920;2022-12-07T05:41:53;7.30;80.80
29663;DHT22;16578;53.266;7.920;2022-12-07T05:44:37;7.30;80.80
29663;DHT22;16578;53.266;7.920;2022-12-07T05:47:03;7.30;80.90
29663;DHT22;16578;53.266;7.920;2022-12-07T05:49:28;7.30;80.90
29663;DHT22;16578;53.266;7.920;2022-12-07T05:51:54;7.30;80.90
29663;DHT22;16578;53.266;7.920;2022-12-07T05:54:19;7.30;80.90
29663;DHT22;16578;53.266;7.920;2022-12-07T05:56:45;7.30;80.90
29663;DHT22;16578;53.266;7.920;2022-12-07T05:59:11;7.30;80.90
29663;DHT22;16578;53.266;7.920;2022-12-07T06:01:50;7.30;80.90
29663;DHT22;16578;53.266;7.920;2022-12-07T06:04:16;7.30;80.90
29663;DHT22;16578;53.266;7.920;2022-12-07T06:06:42;7.40;80.90
29663;DHT22;16578;53.266;7.920;2022-12-07T06:09:09;7.40;80.90
29663;DHT22;16578;53.266;7.920;2022-12-07T06:11:34;7.40;80.80
29663;DHT22;16578;53.266;7.920;2022-12-07T06:14:18;7.40;80.70
29663;DHT22;16578;53.266;7.920;2022-12-07T06:16:44;7.40;80.70
29663;DHT22;16578;53.266;7.920;2022-12-07T06:19:10;7.40;80.60
29663;DHT22;16578;53.266;7.920;2022-12-07T06:21:35;7.40;80.50
29663;DHT22;16578;53.266;7.920;2022-12-07T06:24:01;7.40;80.40
29663;DHT22;16578;53.266;7.920;2022-12-07T06:26:27;7.40;80.40
29663;DHT22;16578;53.266;7.920;2022-12-07T06:28:53;7.40;80.40
29663;DHT22;16578;53.266;7.920;2022-12-07T06:31:18;7.40;80.40
29663;DHT22;16578;53.266;7.920;2022-12-07T06:33:44;7.40;80.40
29663;DHT22;16578;53.266;7.920;2022-12-07T06:36:10;7.40;80.30
29663;DHT22;16578;53.266;7.920;2022-12-07T06:38:35;7.40;80.20
29663;DHT22;16578;53.266;7.920;2022-12-07T06:41:01;7.40;80.30
29663;DHT22;16578;53.266;7.920;2022-12-07T06:43:26;7.30;80.30
29663;DHT22;16578;53.266;7.920;2022-12-07T06:45:52;7.40;80.40
29663;DHT22;16578;53.266;7.920;2022-12-07T06:48:18;7.30;80.40
29663;DHT22;16578;53.266;7.920;2022-12-07T06:50:47;7.30;80.30
29663;DHT22;16578;53.266;7.920;2022-12-07T06:53:13;7.30;80.30
29663;DHT22;16578;53.266;7.920;2022-12-07T06:55:39;7.30;80.30
29663;DHT22;16578;53.266;7.920;2022-12-07T06:58:04;7.30;80.20
29663;DHT22;16578;53.266;7.920;2022-12-07T07:00:30;7.30;80.10
29663;DHT22;16578;53.266;7.920;2022-12-07T07:02:55;7.30;79.90
29663;DHT22;16578;53.266;7.920;2022-12-07T07:05:21;7.20;80.60
29663;DHT22;16578;53.266;7.920;2022-12-07T07:07:50;7.20;79.60
29663;DHT22;16578;53.266;7.920;2022-12-07T07:10:16;7.20;79.50
29663;DHT22;16578;53.266;7.920;2022-12-07T07:12:42;7.10;79.40
29663;DHT22;16578;53.266;7.920;2022-12-07T07:15:07;7.00;79.30
29663;DHT22;16578;53.266;7.920;2022-12-07T07:17:33;7.00;79.30
29663;DHT22;16578;53.266;7.920;2022-12-07T07:19:58;6.90;79.30
29663;DHT22;16578;53.266;7.920;2022-12-07T07:22:24;6.90;79.30
29663;DHT22;16578;53.266;7.920;2022-12-07T07:24:49;6.80;79.30
29663;DHT22;16578;53.266;7.920;2022-12-07T07:27:15;6.80;79.40
29663;DHT22;16578;53.266;7.920;2022-12-07T07:29:41;6.80;79.40
29663;DHT22;16578;53.266;7.920;2022-12-07T07:32:06;6.70;79.40
29663;DHT22;16578;53.266;7.920;2022-12-07T07:34:33;6.60;79.50
29663;DHT22;16578;53.266;7.920;2022-12-07T07:36:58;6.60;79.50
29663;DHT22;16578;53.266;7.920;2022-12-07T07:39:24;6.60;79.60
29663;DHT22;16578;53.266;7.920;2022-12-07T07:41:49;6.50;79.80
29663;DHT22;16578;53.266;7.920;2022-12-07T07:44:15;6.50;80.00
29663;DHT22;16578;53.266;7.920;2022-12-07T07:46:40;6.50;80.00
29663;DHT22;16578;53.266;7.920;2022-12-07T07:49:06;6.50;80.00
29663;DHT22;16578;53.266;7.920;2022-12-07T07:51:31;6.50;80.20
29663;DHT22;16578;53.266;7.920;2022-12-07T07:53:57;6.50;80.20
29663;DHT22;16578;53.266;7.920;2022-12-07T07:56:22;6.40;80.30
29663;DHT22;16578;53.266;7.920;2022-12-07T07:58:52;6.50;80.40
29663;DHT22;16578;53.266;7.920;2022-12-07T08:01:17;6.40;80.60
29663;DHT22;16578;53.266;7.920;2022-12-07T08:03:45;6.50;80.90
29663;DHT22;16578;53.266;7.920;2022-12-07T08:06:11;6.50;81.00
29663;DHT22;16578;53.266;7.920;2022-12-07T08:08:36;6.50;81.00
29663;DHT22;16578;53.266;7.920;2022-12-07T08:11:05;6.50;81.10
29663;DHT22;16578;53.266;7.920;2022-12-07T08:13:31;6.50;80.90
29663;DHT22;16578;53.266;7.920;2022-12-07T08:15:56;6.60;81.00
29663;DHT22;16578;53.266;7.920;2022-12-07T08:18:22;6.60;81.00
29663;DHT22;16578;53.266;7.920;2022-12-07T08:20:47;6.60;81.00
29663;DHT22;16578;53.266;7.920;2022-12-07T08:23:13;6.60;81.00
29663;DHT22;16578;53.266;7.920;2022-12-07T08:25:39;6.60;80.90
29663;DHT22;16578;53.266;7.920;2022-12-07T08:28:05;6.60;81.00
29663;DHT22;16578;53.266;7.920;2022-12-07T08:30:31;6.70;81.10
29663;DHT22;16578;53.266;7.920;2022-12-07T08:32:57;6.60;81.90
29663;DHT22;16578;53.266;7.920;2022-12-07T08:35:23;6.70;81.10
29663;DHT22;16578;53.266;7.920;2022-12-07T08:37:49;6.70;81.20
29663;DHT22;16578;53.266;7.920;2022-12-07T08:40:14;6.80;81.40
29663;DHT22;16578;53.266;7.920;2022-12-07T08:42:42;6.80;81.40
29663;DHT22;16578;53.266;7.920;2022-12-07T08:45:12;6.80;81.40
29663;DHT22;16578;53.266;7.920;2022-12-07T08:47:41;6.90;81.40
29663;DHT22;16578;53.266;7.920;2022-12-07T08:50:10;7.00;81.40
29663;DHT22;16578;53.266;7.920;2022-12-07T08:52:37;7.00;81.30
29663;DHT22;16578;53.266;7.920;2022-12-07T08:55:03;7.00;81.20
29663;DHT22;16578;53.266;7.920;2022-12-07T08:57:30;7.10;81.30
29663;DHT22;16578;53.266;7.920;2022-12-07T08:59:58;7.10;81.30
29663;DHT22;16578;53.266;7.920;2022-12-07T09:02:24;7.20;81.20
29663;DHT22;16578;53.266;7.920;2022-12-07T09:04:49;7.20;81.10
29663;DHT22;16578;53.266;7.920;2022-12-07T09:07:15;7.20;81.10
29663;DHT22;16578;53.266;7.920;2022-12-07T09:09:40;7.20;81.00
29663;DHT22;16578;53.266;7.920;2022-12-07T09:12:07;7.30;81.10
29663;DHT22;16578;53.266;7.920;2022-12-07T09:14:32;7.40;81.20
29663;DHT22;16578;53.266;7.920;2022-12-07T09:17:12;7.40;81.20
29663;DHT22;16578;53.266;7.920;2022-12-07T09:19:38;7.40;81.20
29663;DHT22;16578;53.266;7.920;2022-12-07T09:22:04;7.50;81.30
29663;DHT22;16578;53.266;7.920;2022-12-07T09:24:31;7.50;81.20
29663;DHT22;16578;53.266;7.920;2022-12-07T09:26:57;7.50;81.10
29663;DHT22;16578;53.266;7.920;2022-12-07T09:29:23;7.60;81.10
29663;DHT22;16578;53.266;7.920;2022-12-07T09:31:49;7.70;81.20
29663;DHT22;16578;53.266;7.920;2022-12-07T09:34:14;7.70;81.10
29663;DHT22;16578;53.266;7.920;2022-12-07T09:36:40;7.80;81.10
29663;DHT22;16578;53.266;7.920;2022-12-07T09:39:05;7.80;81.00
29663;DHT22;16578;53.266;7.920;2022-12-07T09:41:32;7.80;80.90
29663;DHT22;16578;53.266;7.920;2022-12-07T09:44:24;7.90;81.00
29663;DHT22;16578;53.266;7.920;2022-12-07T09:46:50;7.90;80.60
29663;DHT22;16578;53.266;7.920;2022-12-07T09:49:20;8.00;80.70
29663;DHT22;16578;53.266;7.920;2022-12-07T09:51:47;8.00;80.70
29663;DHT22;16578;53.266;7.920;2022-12-07T09:54:14;8.00;80.60
29663;DHT22;16578;53.266;7.920;2022-12-07T09:56:41;8.10;80.60
29663;DHT22;16578;53.266;7.920;2022-12-07T09:59:13;8.10;80.60
29663;DHT22;16578;53.266;7.920;2022-12-07T10:01:42;8.10;80.60
29663;DHT22;16578;53.266;7.920;2022-12-07T10:04:15;8.20;80.70
29663;DHT22;16578;53.266;7.920;2022-12-07T10:06:41;8.20;80.50
29663;DHT22;16578;53.266;7.920;2022-12-07T10:09:12;8.20;80.50
29663;DHT22;16578;53.266;7.920;2022-12-07T10:14:23;8.30;80.30
29663;DHT22;16578;53.266;7.920;2022-12-07T10:16:49;8.30;80.60
29663;DHT22;16578;53.266;7.920;2022-12-07T10:19:22;8.30;80.60
29663;DHT22;16578;53.266;7.920;2022-12-07T10:22:02;8.40;80.60
29663;DHT22;16578;53.266;7.920;2022-12-07T10:24:28;8.40;80.50
29663;DHT22;16578;53.266;7.920;2022-12-07T10:26:54;8.50;80.60
29663;DHT22;16578;53.266;7.920;2022-12-07T10:29:31;8.50;80.60
29663;DHT22;16578;53.266;7.920;2022-12-07T10:31:58;8.50;80.60
29663;DHT22;16578;53.266;7.920;2022-12-07T10:36:51;8.60;80.50
29663;DHT22;16578;53.266;7.920;2022-12-07T10:39:19;8.70;80.40
29663;DHT22;16578;53.266;7.920;2022-12-07T10:41:57;8.70;80.20
29663;DHT22;16578;53.266;7.920;2022-12-07T10:44:33;8.70;80.00
29663;DHT22;16578;53.266;7.920;2022-12-07T10:50:17;8.80;79.70
29663;DHT22;16578;53.266;7.920;2022-12-07T10:53:27;8.80;79.90
29663;DHT22;16578;53.266;7.920;2022-12-07T11:20:41;9.00;79.60
29663;DHT22;16578;53.266;7.920;2022-12-07T11:23:18;9.10;79.60
29663;DHT22;16578;53.266;7.920;2022-12-07T11:26:22;9.10;79.70
29663;DHT22;16578;53.266;7.920;2022-12-07T11:34:38;9.10;79.40
29663;DHT22;16578;53.266;7.920;2022-12-07T11:37:10;9.10;79.20
29663;DHT22;16578;53.266;7.920;2022-12-07T11:39:51;9.20;79.40
29663;DHT22;16578;53.266;7.920;2022-12-07T11:42:24;9.20;79.20
29663;DHT22;16578;53.266;7.920;2022-12-07T11:47:36;9.20;79.10
29663;DHT22;16578;53.266;7.920;2022-12-07T11:53:02;9.20;79.00
29663;DHT22;16578;53.266;7.920;2022-12-07T11:55:52;9.20;79.10
29663;DHT22;16578;53.266;7.920;2022-12-07T12:03:34;9.30;78.90
29663;DHT22;16578;53.266;7.920;2022-12-07T12:06:01;9.30;78.90
29663;DHT22;16578;53.266;7.920;2022-12-07T12:08:39;9.30;78.80
29663;DHT22;16578;53.266;7.920;2022-12-07T12:19:54;9.30;78.30
29663;DHT22;16578;53.266;7.920;2022-12-07T12:22:30;9.40;78.40
29663;DHT22;16578;53.266;7.920;2022-12-07T12:24:58;9.40;78.60
29663;DHT22;16578;53.266;7.920;2022-12-07T12:27:27;9.40;78.60
29663;DHT22;16578;53.266;7.920;2022-12-07T12:29:59;9.40;78.20
29663;DHT22;16578;53.266;7.920;2022-12-07T12:32:42;9.50;78.30
29663;DHT22;16578;53.266;7.920;2022-12-07T12:35:33;9.50;78.00
29663;DHT22;16578;53.266;7.920;2022-12-07T12:38:25;9.50;77.70
29663;DHT22;16578;53.266;7.920;2022-12-07T12:40:52;9.50;77.30
29663;DHT22;16578;53.266;7.920;2022-12-07T12:43:58;9.50;77.40
29663;DHT22;16578;53.266;7.920;2022-12-07T12:54:19;9.60;77.90
29663;DHT22;16578;53.266;7.920;2022-12-07T13:02:25;9.60;77.60
29663;DHT22;16578;53.266;7.920;2022-12-07T13:04:57;9.70;77.50
29663;DHT22;16578;53.266;7.920;2022-12-07T13:21:39;9.60;77.00
29663;DHT22;16578;53.266;7.920;2022-12-07T13:31:46;9.50;76.50
29663;DHT22;16578;53.266;7.920;2022-12-07T13:34:35;9.50;76.90
29663;DHT22;16578;53.266;7.920;2022-12-07T13:37:09;9.50;76.70
29663;DHT22;16578;53.266;7.920;2022-12-07T13:39:45;9.50;77.10
29663;DHT22;16578;53.266;7.920;2022-12-07T13:42:34;9.50;77.00
29663;DHT22;16578;53.266;7.920;2022-12-07T13:45:17;9.50;76.60
29663;DHT22;16578;53.266;7.920;2022-12-07T13:47:53;9.60;77.00
29663;DHT22;16578;53.266;7.920;2022-12-07T13:50:28;9.60;76.80
29663;DHT22;16578;53.266;7.920;2022-12-07T13:53:01;9.60;76.60
29663;DHT22;16578;53.266;7.920;2022-12-07T13:55:28;9.60;76.30
29663;DHT22;16578;53.266;7.920;2022-12-07T13:57:54;9.50;76.20
29663;DHT22;16578;53.266;7.920;2022-12-07T14:00:22;9.50;76.10
29663;DHT22;16578;53.266;7.920;2022-12-07T14:05:30;9.40;76.70
29663;DHT22;16578;53.266;7.920;2022-12-07T14:07:58;9.40;76.00
29663;DHT22;16578;53.266;7.920;2022-12-07T14:10:26;9.40;76.20
29663;DHT22;16578;53.266;7.920;2022-12-07T14:12:51;9.30;76.20
29663;DHT22;16578;53.266;7.920;2022-12-07T14:15:33;9.30;76.30
29663;DHT22;16578;53.266;7.920;2022-12-07T14:18:00;9.30;76.40
29663;DHT22;16578;53.266;7.920;2022-12-07T14:20:40;9.40;76.80
29663;DHT22;16578;53.266;7.920;2022-12-07T14:23:24;9.40;76.80
29663;DHT22;16578;53.266;7.920;2022-12-07T14:25:52;9.40;76.60
29663;DHT22;16578;53.266;7.920;2022-12-07T14:28:36;9.50;76.90
29663;DHT22;16578;53.266;7.920;2022-12-07T14:31:02;9.50;76.60
29663;DHT22;16578;53.266;7.920;2022-12-07T14:33:28;9.50;76.50
29663;DHT22;16578;53.266;7.920;2022-12-07T14:35:55;9.50;76.20
29663;DHT22;16578;53.266;7.920;2022-12-07T14:38:24;9.50;75.90
29663;DHT22;16578;53.266;7.920;2022-12-07T14:40:52;9.50;75.60
29663;DHT22;16578;53.266;7.920;2022-12-07T14:43:18;9.40;75.50
29663;DHT22;16578;53.266;7.920;2022-12-07T14:45:45;9.40;75.40
29663;DHT22;16578;53.266;7.920;2022-12-07T14:48:12;9.30;75.30
29663;DHT22;16578;53.266;7.920;2022-12-07T14:50:41;9.30;75.40
29663;DHT22;16578;53.266;7.920;2022-12-07T14:53:15;9.20;75.40
29663;DHT22;16578;53.266;7.920;2022-12-07T14:55:42;9.20;75.50
29663;DHT22;16578;53.266;7.920;2022-12-07T14:58:14;9.10;75.60
29663;DHT22;16578;53.266;7.920;2022-12-07T15:00:40;9.10;75.70
29663;DHT22;16578;53.266;7.920;2022-12-07T15:03:06;9.00;75.80
29663;DHT22;16578;53.266;7.920;2022-12-07T15:05:31;9.00;76.90
29663;DHT22;16578;53.266;7.920;2022-12-07T15:07:58;8.90;76.00
29663;DHT22;16578;53.266;7.920;2022-12-07T15:10:26;8.90;76.10
29663;DHT22;16578;53.266;7.920;2022-12-07T15:12:57;8.90;76.20
29663;DHT22;16578;53.266;7.920;2022-12-07T15:15:47;8.90;76.20
29663;DHT22;16578;53.266;7.920;2022-12-07T15:18:12;8.80;76.10
29663;DHT22;16578;53.266;7.920;2022-12-07T15:20:38;8.80;76.10
29663;DHT22;16578;53.266;7.920;2022-12-07T15:23:04;8.80;76.30
29663;DHT22;16578;53.266;7.920;2022-12-07T15:25:29;8.80;76.40
29663;DHT22;16578;53.266;7.920;2022-12-07T15:27:55;8.70;76.40
29663;DHT22;16578;53.266;7.920;2022-12-07T15:30:20;8.70;76.60
29663;DHT22;16578;53.266;7.920;2022-12-07T15:32:53;8.70;76.70
29663;DHT22;16578;53.266;7.920;2022-12-07T15:35:20;8.70;76.80
29663;DHT22;16578;53.266;7.920;2022-12-07T15:37:46;8.70;76.80
29663;DHT22;16578;53.266;7.920;2022-12-07T15:40:12;8.70;76.80
29663;DHT22;16578;53.266;7.920;2022-12-07T15:42:39;8.70;76.90
29663;DHT22;16578;53.266;7.920;2022-12-07T15:45:07;8.70;76.80
29663;DHT22;16578;53.266;7.920;2022-12-07T15:47:43;8.60;76.70
29663;DHT22;16578;53.266;7.920;2022-12-07T15:50:13;8.60;76.90
29663;DHT22;16578;53.266;7.920;2022-12-07T15:52:38;8.60;77.10
29663;DHT22;16578;53.266;7.920;2022-12-07T15:55:04;8.50;77.30
29663;DHT22;16578;53.266;7.920;2022-12-07T15:57:31;8.50;77.20
29663;DHT22;16578;53.266;7.920;2022-12-07T15:59:57;8.50;77.10
29663;DHT22;16578;53.266;7.920;2022-12-07T16:02:23;8.50;77.20
29663;DHT22;16578;53.266;7.920;2022-12-07T16:04:49;8.50;77.20
29663;DHT22;16578;53.266;7.920;2022-12-07T16:07:15;8.50;77.30
29663;DHT22;16578;53.266;7.920;2022-12-07T16:09:42;8.50;77.30
29663;DHT22;16578;53.266;7.920;2022-12-07T16:12:09;8.50;77.30
29663;DHT22;16578;53.266;7.920;2022-12-07T16:14:34;8.40;77.20
29663;DHT22;16578;53.266;7.920;2022-12-07T16:17:00;8.40;77.30
29663;DHT22;16578;53.266;7.920;2022-12-07T16:19:25;8.40;77.30
29663;DHT22;16578;53.266;7.920;2022-12-07T16:21:51;8.40;77.30
29663;DHT22;16578;53.266;7.920;2022-12-07T16:24:17;8.40;77.40
29663;DHT22;16578;53.266;7.920;2022-12-07T16:26:43;8.30;77.50
29663;DHT22;16578;53.266;7.920;2022-12-07T16:29:11;8.30;77.50
29663;DHT22;16578;53.266;7.920;2022-12-07T16:31:37;8.30;77.40
29663;DHT22;16578;53.266;7.920;2022-12-07T16:34:03;8.30;77.40
29663;DHT22;16578;53.266;7.920;2022-12-07T16:36:28;8.30;77.50
29663;DHT22;16578;53.266;7.920;2022-12-07T16:38:54;8.30;77.40
29663;DHT22;16578;53.266;7.920;2022-12-07T16:41:19;8.20;77.30
29663;DHT22;16578;53.266;7.920;2022-12-07T16:43:45;8.20;77.30
29663;DHT22;16578;53.266;7.920;2022-12-07T16:46:11;8.20;77.20
29663;DHT22;16578;53.266;7.920;2022-12-07T16:48:38;8.20;77.10
29663;DHT22;16578;53.266;7.920;2022-12-07T16:51:08;8.10;77.00
29663;DHT22;16578;53.266;7.920;2022-12-07T16:53:35;8.10;77.00
29663;DHT22;16578;53.266;7.920;2022-12-07T16:56:01;8.00;77.00
29663;DHT22;16578;53.266;7.920;2022-12-07T16:58:27;8.00;77.00
29663;DHT22;16578;53.266;7.920;2022-12-07T17:00:53;7.90;77.00
29663;DHT22;16578;53.266;7.920;2022-12-07T17:03:20;7.90;77.10
29663;DHT22;16578;53.266;7.920;2022-12-07T17:05:46;7.90;77.10
29663;DHT22;16578;53.266;7.920;2022-12-07T17:08:13;7.80;77.10
29663;DHT22;16578;53.266;7.920;2022-12-07T17:10:41;7.80;77.30
29663;DHT22;16578;53.266;7.920;2022-12-07T17:13:08;7.80;78.10
29663;DHT22;16578;53.266;7.920;2022-12-07T17:16:03;7.70;77.30
29663;DHT22;16578;53.266;7.920;2022-12-07T17:18:31;7.70;77.50
29663;DHT22;16578;53.266;7.920;2022-12-07T17:21:05;7.70;77.70
29663;DHT22;16578;53.266;7.920;2022-12-07T17:23:32;7.60;77.60
29663;DHT22;16578;53.266;7.920;2022-12-07T17:26:14;7.60;77.70
29663;DHT22;16578;53.266;7.920;2022-12-07T17:28:40;7.60;77.80
29663;DHT22;16578;53.266;7.920;2022-12-07T17:31:08;7.60;78.00
29663;DHT22;16578;53.266;7.920;2022-12-07T17:33:34;7.60;78.00
29663;DHT22;16578;53.266;7.920;2022-12-07T17:36:10;7.60;78.00
29663;DHT22;16578;53.266;7.920;2022-12-07T17:38:36;7.60;78.00
29663;DHT22;16578;53.266;7.920;2022-12-07T17:41:18;7.50;78.00
29663;DHT22;16578;53.266;7.920;2022-12-07T17:44:04;7.50;77.90
29663;DHT22;16578;53.266;7.920;2022-12-07T17:46:30;7.50;78.00
29663;DHT22;16578;53.266;7.920;2022-12-07T17:48:57;7.50;78.10
29663;DHT22;16578;53.266;7.920;2022-12-07T17:51:23;7.50;78.00
29663;DHT22;16578;53.266;7.920;2022-12-07T17:54:07;7.50;78.10
29663;DHT22;16578;53.266;7.920;2022-12-07T17:56:33;7.50;78.10
29663;DHT22;16578;53.266;7.920;2022-12-07T17:58:58;7.50;78.10
29663;DHT22;16578;53.266;7.920;2022-12-07T18:01:24;7.50;78.10